sensor_id;sensor_type;location;lat;lon;timestamp;P1;durP1;ratioP1;P2;durP2;ratioP2
18210;SDS011;9231;48.852;9.882;2022-11-23T00:01:57;3.87;;;3.00;;
18210;SDS011;9231;48.852;9.882;2022-11-23T00:04:24;7.77;;;2.73;;
18210;SDS011;9231;48.852;9.882;2022-11-23T00:06:50;5.37;;;1.97;;
18210;SDS011;9231;48.852;9.882;2022-11-23T00:09:17;5.03;;;2.00;;
18210;SDS011;9231;48.852;9.882;2022-11-23T00:11:43;4.10;;;2.53;;
18210;SDS011;9231;48.852;9.882;2022-11-23T00:14:11;5.27;;;2.10;;
18210;SDS011;9231;48.852;9.882;2022-11-23T00:16:38;4.37;;;1.93;;
18210;SDS011;9231;48.852;9.882;2022-11-23T00:19:04;6.70;;;2.23;;
18210;SDS011;9231;48.852;9.882;2022-11-23T00:21:31;4.20;;;1.90;;
18210;SDS011;9231;48.852;9.882;2022-11-23T00:23:57;6.30;;;1.83;;
18210;SDS011;9231;48.852;9.882;2022-11-23T00:26:24;5.23;;;1.83;;
18210;SDS011;9231;48.852;9.882;2022-11-23T00:28:50;3.07;;;1.80;;
18210;SDS011;9231;48.852;9.882;2022-11-23T00:31:19;4.37;;;2.10;;
18210;SDS011;9231;48.852;9.882;2022-11-23T00:33:48;3.43;;;1.90;;
18210;SDS011;9231;48.852;9.882;2022-11-23T00:36:15;4.47;;;2.00;;
18210;SDS011;9231;48.852;9.882;2022-11-23T00:38:42;8.73;;;2.20;;
18210;SDS011;9231;48.852;9.882;2022-11-23T00:41:09;5.33;;;1.50;;
18210;SDS011;9231;48.852;9.882;2022-11-23T00:43:36;3.13;;;1.63;;
18210;SDS011;9231;48.852;9.882;2022-11-23T00:46:07;2.87;;;1.53;;
18210;SDS011;9231;48.852;9.882;2022-11-23T00:48:35;5.97;;;2.33;;
18210;SDS011;9231;48.852;9.882;2022-11-23T00:51:01;6.77;;;3.67;;
18210;SDS011;9231;48.852;9.882;2022-11-23T00:53:28;6.30;;;3.60;;
18210;SDS011;9231;48.852;9.882;2022-11-23T00:55:55;8.63;;;4.07;;
18210;SDS011;9231;48.852;9.882;2022-11-23T00:58:21;6.27;;;3.60;;
18210;SDS011;9231;48.852;9.882;2022-11-23T01:00:48;5.50;;;2.60;;
18210;SDS011;9231;48.852;9.882;2022-11-23T01:03:14;5.37;;;2.40;;
18210;SDS011;9231;48.852;9.882;2022-11-23T01:05:42;6.07;;;2.27;;
18210;SDS011;9231;48.852;9.882;2022-11-23T01:08:09;5.63;;;2.80;;
18210;SDS011;9231;48.852;9.882;2022-11-23T01:10:35;5.07;;;2.60;;
18210;SDS011;9231;48.852;9.882;2022-11-23T01:13:02;7.20;;;2.27;;
18210;SDS011;9231;48.852;9.882;2022-11-23T01:15:28;3.73;;;2.30;;
18210;SDS011;9231;48.852;9.882;2022-11-23T01:17:55;4.70;;;2.60;;
18210;SDS011;9231;48.852;9.882;2022-11-23T01:20:21;4.57;;;2.37;;
18210;SDS011;9231;48.852;9.882;2022-11-23T01:22:51;4.30;;;2.27;;
18210;SDS011;9231;48.852;9.882;2022-11-23T01:25:17;4.67;;;2.60;;
18210;SDS011;9231;48.852;9.882;2022-11-23T01:27:44;3.40;;;2.00;;
18210;SDS011;9231;48.852;9.882;2022-11-23T01:30:10;5.90;;;2.13;;
18210;SDS011;9231;48.852;9.882;2022-11-23T01:32:37;4.17;;;2.10;;
18210;SDS011;9231;48.852;9.882;2022-11-23T01:35:04;3.20;;;2.17;;
18210;SDS011;9231;48.852;9.882;2022-11-23T01:37:30;4.10;;;1.90;;
18210;SDS011;9231;48.852;9.882;2022-11-23T01:39:58;2.50;;;1.73;;
18210;SDS011;9231;48.852;9.882;2022-11-23T01:42:36;4.40;;;1.87;;
18210;SDS011;9231;48.852;9.882;2022-11-23T01:47:57;4.00;;;2.37;;
18210;SDS011;9231;48.852;9.882;2022-11-23T01:50:24;4.50;;;2.33;;
18210;SDS011;9231;48.852;9.882;2022-11-23T01:52:50;3.50;;;2.10;;
18210;SDS011;9231;48.852;9.882;2022-11-23T01:55:18;3.80;;;2.30;;
18210;SDS011;9231;48.852;9.882;2022-11-23T01:57:45;4.80;;;2.30;;
18210;SDS011;9231;48.852;9.882;2022-11-23T02:00:12;4.53;;;2.40;;
18210;SDS011;9231;48.852;9.882;2022-11-23T02:02:39;4.70;;;2.40;;
18210;SDS011;9231;48.852;9.882;2022-11-23T02:05:08;3.40;;;2.33;;
18210;SDS011;9231;48.852;9.882;2022-11-23T02:07:35;3.37;;;1.73;;
18210;SDS011;9231;48.852;9.882;2022-11-23T02:10:02;4.50;;;1.93;;
18210;SDS011;9231;48.852;9.882;2022-11-23T02:12:30;5.10;;;2.07;;
18210;SDS011;9231;48.852;9.882;2022-11-23T02:14:56;4.13;;;1.93;;
18210;SDS011;9231;48.852;9.882;2022-11-23T02:17:23;4.40;;;2.47;;
18210;SDS011;9231;48.852;9.882;2022-11-23T02:19:52;6.00;;;1.90;;
18210;SDS011;9231;48.852;9.882;2022-11-23T02:22:22;3.13;;;1.80;;
18210;SDS011;9231;48.852;9.882;2022-11-23T02:24:52;6.13;;;2.20;;
18210;SDS011;9231;48.852;9.882;2022-11-23T02:27:20;2.60;;;2.27;;
18210;SDS011;9231;48.852;9.882;2022-11-23T02:29:47;3.70;;;2.13;;
18210;SDS011;9231;48.852;9.882;2022-11-23T02:32:16;2.90;;;2.40;;
18210;SDS011;9231;48.852;9.882;2022-11-23T02:34:44;2.57;;;1.77;;
18210;SDS011;9231;48.852;9.882;2022-11-23T02:37:10;3.77;;;2.27;;
18210;SDS011;9231;48.852;9.882;2022-11-23T02:39:39;5.63;;;2.60;;
18210;SDS011;9231;48.852;9.882;2022-11-23T02:42:06;3.40;;;2.20;;
18210;SDS011;9231;48.852;9.882;2022-11-23T02:44:36;2.20;;;1.53;;
18210;SDS011;9231;48.852;9.882;2022-11-23T02:47:04;4.03;;;2.10;;
18210;SDS011;9231;48.852;9.882;2022-11-23T02:49:31;3.57;;;2.27;;
18210;SDS011;9231;48.852;9.882;2022-11-23T02:51:58;3.37;;;2.00;;
18210;SDS011;9231;48.852;9.882;2022-11-23T02:54:24;4.23;;;2.20;;
18210;SDS011;9231;48.852;9.882;2022-11-23T02:56:51;2.60;;;2.07;;
18210;SDS011;9231;48.852;9.882;2022-11-23T02:59:17;3.30;;;1.90;;
18210;SDS011;9231;48.852;9.882;2022-11-23T03:01:45;3.13;;;2.30;;
18210;SDS011;9231;48.852;9.882;2022-11-23T03:04:11;4.37;;;2.47;;
18210;SDS011;9231;48.852;9.882;2022-11-23T03:06:38;8.87;;;2.43;;
18210;SDS011;9231;48.852;9.882;2022-11-23T03:09:04;3.53;;;2.37;;
18210;SDS011;9231;48.852;9.882;2022-11-23T03:11:31;4.47;;;2.63;;
18210;SDS011;9231;48.852;9.882;2022-11-23T03:13:58;3.33;;;2.30;;
18210;SDS011;9231;48.852;9.882;2022-11-23T03:16:24;3.53;;;2.10;;
18210;SDS011;9231;48.852;9.882;2022-11-23T03:18:52;2.40;;;2.00;;
18210;SDS011;9231;48.852;9.882;2022-11-23T03:21:18;3.60;;;2.37;;
18210;SDS011;9231;48.852;9.882;2022-11-23T03:23:45;3.43;;;2.50;;
18210;SDS011;9231;48.852;9.882;2022-11-23T03:26:11;3.10;;;2.00;;
18210;SDS011;9231;48.852;9.882;2022-11-23T03:28:38;2.97;;;1.90;;
18210;SDS011;9231;48.852;9.882;2022-11-23T03:31:04;3.10;;;2.30;;
18210;SDS011;9231;48.852;9.882;2022-11-23T03:33:32;4.17;;;2.03;;
18210;SDS011;9231;48.852;9.882;2022-11-23T03:36:00;5.03;;;2.30;;
18210;SDS011;9231;48.852;9.882;2022-11-23T03:38:26;3.67;;;2.30;;
18210;SDS011;9231;48.852;9.882;2022-11-23T03:40:53;3.57;;;2.47;;
18210;SDS011;9231;48.852;9.882;2022-11-23T03:43:19;6.20;;;2.90;;
18210;SDS011;9231;48.852;9.882;2022-11-23T03:45:46;2.93;;;2.20;;
18210;SDS011;9231;48.852;9.882;2022-11-23T03:48:13;6.97;;;2.40;;
18210;SDS011;9231;48.852;9.882;2022-11-23T03:50:39;2.97;;;2.40;;
18210;SDS011;9231;48.852;9.882;2022-11-23T03:53:07;2.50;;;1.77;;
18210;SDS011;9231;48.852;9.882;2022-11-23T03:55:34;5.07;;;2.33;;
18210;SDS011;9231;48.852;9.882;2022-11-23T03:58:00;4.87;;;1.90;;
18210;SDS011;9231;48.852;9.882;2022-11-23T04:00:27;10.13;;;4.90;;
18210;SDS011;9231;48.852;9.882;2022-11-23T04:02:54;4.47;;;2.30;;
18210;SDS011;9231;48.852;9.882;2022-11-23T04:05:20;4.17;;;2.13;;
18210;SDS011;9231;48.852;9.882;2022-11-23T04:07:47;5.10;;;2.67;;
18210;SDS011;9231;48.852;9.882;2022-11-23T04:10:15;2.90;;;2.30;;
18210;SDS011;9231;48.852;9.882;2022-11-23T04:12:42;3.70;;;2.43;;
18210;SDS011;9231;48.852;9.882;2022-11-23T04:15:09;3.60;;;2.57;;
18210;SDS011;9231;48.852;9.882;2022-11-23T04:17:35;3.20;;;2.30;;
18210;SDS011;9231;48.852;9.882;2022-11-23T04:20:02;3.07;;;2.33;;
18210;SDS011;9231;48.852;9.882;2022-11-23T04:22:29;3.67;;;2.50;;
18210;SDS011;9231;48.852;9.882;2022-11-23T04:24:55;4.00;;;2.40;;
18210;SDS011;9231;48.852;9.882;2022-11-23T04:27:23;2.80;;;2.27;;
18210;SDS011;9231;48.852;9.882;2022-11-23T04:29:49;3.43;;;2.60;;
18210;SDS011;9231;48.852;9.882;2022-11-23T04:32:16;5.30;;;2.40;;
18210;SDS011;9231;48.852;9.882;2022-11-23T04:34:42;4.60;;;3.47;;
18210;SDS011;9231;48.852;9.882;2022-11-23T04:37:08;4.67;;;2.87;;
18210;SDS011;9231;48.852;9.882;2022-11-23T04:39:35;5.73;;;3.20;;
18210;SDS011;9231;48.852;9.882;2022-11-23T04:42:01;4.77;;;3.10;;
18210;SDS011;9231;48.852;9.882;2022-11-23T04:44:29;7.60;;;4.27;;
18210;SDS011;9231;48.852;9.882;2022-11-23T04:46:55;7.80;;;5.33;;
18210;SDS011;9231;48.852;9.882;2022-11-23T04:49:22;7.50;;;5.07;;
18210;SDS011;9231;48.852;9.882;2022-11-23T04:51:49;8.00;;;5.10;;
18210;SDS011;9231;48.852;9.882;2022-11-23T04:54:15;8.60;;;5.43;;
18210;SDS011;9231;48.852;9.882;2022-11-23T04:56:42;7.33;;;4.97;;
18210;SDS011;9231;48.852;9.882;2022-11-23T04:59:08;5.00;;;3.43;;
18210;SDS011;9231;48.852;9.882;2022-11-23T05:01:36;3.30;;;2.67;;
18210;SDS011;9231;48.852;9.882;2022-11-23T05:04:03;3.73;;;2.80;;
18210;SDS011;9231;48.852;9.882;2022-11-23T05:06:29;5.23;;;2.70;;
18210;SDS011;9231;48.852;9.882;2022-11-23T05:08:56;8.27;;;4.17;;
18210;SDS011;9231;48.852;9.882;2022-11-23T05:11:22;9.23;;;6.90;;
18210;SDS011;9231;48.852;9.882;2022-11-23T05:13:48;11.77;;;8.93;;
18210;SDS011;9231;48.852;9.882;2022-11-23T05:16:15;7.00;;;5.23;;
18210;SDS011;9231;48.852;9.882;2022-11-23T05:18:43;4.90;;;3.70;;
18210;SDS011;9231;48.852;9.882;2022-11-23T05:21:09;4.80;;;3.13;;
18210;SDS011;9231;48.852;9.882;2022-11-23T05:23:36;4.43;;;2.70;;
18210;SDS011;9231;48.852;9.882;2022-11-23T05:26:02;3.27;;;2.37;;
18210;SDS011;9231;48.852;9.882;2022-11-23T05:28:29;3.40;;;1.87;;
18210;SDS011;9231;48.852;9.882;2022-11-23T05:30:55;2.77;;;2.23;;
18210;SDS011;9231;48.852;9.882;2022-11-23T05:33:21;3.50;;;2.17;;
18210;SDS011;9231;48.852;9.882;2022-11-23T05:35:49;5.37;;;1.63;;
18210;SDS011;9231;48.852;9.882;2022-11-23T05:38:16;5.60;;;2.17;;
18210;SDS011;9231;48.852;9.882;2022-11-23T05:40:43;3.07;;;2.30;;
18210;SDS011;9231;48.852;9.882;2022-11-23T05:43:10;2.53;;;1.60;;
18210;SDS011;9231;48.852;9.882;2022-11-23T05:45:36;3.67;;;1.70;;
18210;SDS011;9231;48.852;9.882;2022-11-23T05:48:03;4.40;;;1.93;;
18210;SDS011;9231;48.852;9.882;2022-11-23T05:50:30;3.93;;;1.77;;
18210;SDS011;9231;48.852;9.882;2022-11-23T05:52:58;2.50;;;1.67;;
18210;SDS011;9231;48.852;9.882;2022-11-23T05:55:25;4.30;;;2.30;;
18210;SDS011;9231;48.852;9.882;2022-11-23T05:57:52;4.70;;;3.40;;
18210;SDS011;9231;48.852;9.882;2022-11-23T06:00:19;5.07;;;4.10;;
18210;SDS011;9231;48.852;9.882;2022-11-23T06:02:45;5.97;;;3.80;;
18210;SDS011;9231;48.852;9.882;2022-11-23T06:05:12;6.30;;;4.40;;
18210;SDS011;9231;48.852;9.882;2022-11-23T06:07:38;4.13;;;3.17;;
18210;SDS011;9231;48.852;9.882;2022-11-23T06:10:06;6.00;;;3.63;;
18210;SDS011;9231;48.852;9.882;2022-11-23T06:12:33;7.07;;;3.83;;
18210;SDS011;9231;48.852;9.882;2022-11-23T06:14:59;5.50;;;3.83;;
18210;SDS011;9231;48.852;9.882;2022-11-23T06:17:26;5.00;;;4.00;;
18210;SDS011;9231;48.852;9.882;2022-11-23T06:19:52;4.90;;;3.20;;
18210;SDS011;9231;48.852;9.882;2022-11-23T06:22:19;3.80;;;2.87;;
18210;SDS011;9231;48.852;9.882;2022-11-23T06:24:45;4.70;;;2.90;;
18210;SDS011;9231;48.852;9.882;2022-11-23T06:27:14;3.47;;;2.77;;
18210;SDS011;9231;48.852;9.882;2022-11-23T06:29:41;3.80;;;2.77;;
18210;SDS011;9231;48.852;9.882;2022-11-23T06:32:08;6.60;;;2.57;;
18210;SDS011;9231;48.852;9.882;2022-11-23T06:34:34;4.73;;;2.50;;
18210;SDS011;9231;48.852;9.882;2022-11-23T06:37:01;2.97;;;2.30;;
18210;SDS011;9231;48.852;9.882;2022-11-23T06:39:27;5.03;;;2.83;;
18210;SDS011;9231;48.852;9.882;2022-11-23T06:41:53;4.43;;;2.40;;
18210;SDS011;9231;48.852;9.882;2022-11-23T06:44:21;14.23;;;2.60;;
18210;SDS011;9231;48.852;9.882;2022-11-23T06:46:48;4.70;;;2.63;;
18210;SDS011;9231;48.852;9.882;2022-11-23T06:49:14;5.33;;;2.83;;
18210;SDS011;9231;48.852;9.882;2022-11-23T06:51:43;5.90;;;2.20;;
18210;SDS011;9231;48.852;9.882;2022-11-23T06:54:10;6.10;;;3.20;;
18210;SDS011;9231;48.852;9.882;2022-11-23T06:56:36;5.03;;;3.37;;
18210;SDS011;9231;48.852;9.882;2022-11-23T06:59:03;5.07;;;3.90;;
18210;SDS011;9231;48.852;9.882;2022-11-23T07:01:31;6.20;;;3.63;;
18210;SDS011;9231;48.852;9.882;2022-11-23T07:03:57;4.57;;;2.70;;
18210;SDS011;9231;48.852;9.882;2022-11-23T07:06:24;6.10;;;3.30;;
18210;SDS011;9231;48.852;9.882;2022-11-23T07:08:52;6.80;;;2.73;;
18210;SDS011;9231;48.852;9.882;2022-11-23T07:11:19;6.23;;;2.90;;
18210;SDS011;9231;48.852;9.882;2022-11-23T07:13:45;3.00;;;2.43;;
18210;SDS011;9231;48.852;9.882;2022-11-23T07:16:12;2.80;;;2.37;;
18210;SDS011;9231;48.852;9.882;2022-11-23T07:18:43;7.53;;;2.83;;
18210;SDS011;9231;48.852;9.882;2022-11-23T07:21:09;4.10;;;2.73;;
18210;SDS011;9231;48.852;9.882;2022-11-23T07:23:36;5.67;;;2.83;;
18210;SDS011;9231;48.852;9.882;2022-11-23T07:26:05;5.47;;;3.00;;
18210;SDS011;9231;48.852;9.882;2022-11-23T07:28:31;4.23;;;2.87;;
18210;SDS011;9231;48.852;9.882;2022-11-23T07:30:58;3.93;;;2.60;;
18210;SDS011;9231;48.852;9.882;2022-11-23T07:33:24;5.40;;;2.97;;
18210;SDS011;9231;48.852;9.882;2022-11-23T07:35:52;4.37;;;2.77;;
18210;SDS011;9231;48.852;9.882;2022-11-23T07:38:18;3.87;;;2.87;;
18210;SDS011;9231;48.852;9.882;2022-11-23T07:40:47;6.07;;;2.57;;
18210;SDS011;9231;48.852;9.882;2022-11-23T07:43:14;5.20;;;2.57;;
18210;SDS011;9231;48.852;9.882;2022-11-23T07:45:40;9.93;;;6.63;;
18210;SDS011;9231;48.852;9.882;2022-11-23T07:48:07;6.53;;;4.30;;
18210;SDS011;9231;48.852;9.882;2022-11-23T07:50:34;7.53;;;5.90;;
18210;SDS011;9231;48.852;9.882;2022-11-23T07:53:02;24.37;;;20.70;;
18210;SDS011;9231;48.852;9.882;2022-11-23T07:55:29;16.53;;;11.17;;
18210;SDS011;9231;48.852;9.882;2022-11-23T07:57:56;12.57;;;10.37;;
18210;SDS011;9231;48.852;9.882;2022-11-23T08:00:23;10.67;;;8.67;;
18210;SDS011;9231;48.852;9.882;2022-11-23T08:02:50;12.07;;;9.20;;
18210;SDS011;9231;48.852;9.882;2022-11-23T08:05:16;9.90;;;7.57;;
18210;SDS011;9231;48.852;9.882;2022-11-23T08:07:43;8.60;;;6.07;;
18210;SDS011;9231;48.852;9.882;2022-11-23T08:10:11;7.43;;;3.93;;
18210;SDS011;9231;48.852;9.882;2022-11-23T08:12:38;8.50;;;3.90;;
18210;SDS011;9231;48.852;9.882;2022-11-23T08:15:05;7.83;;;6.27;;
18210;SDS011;9231;48.852;9.882;2022-11-23T08:17:31;8.10;;;5.83;;
18210;SDS011;9231;48.852;9.882;2022-11-23T08:19:58;9.63;;;6.53;;
18210;SDS011;9231;48.852;9.882;2022-11-23T08:22:24;7.80;;;6.07;;
18210;SDS011;9231;48.852;9.882;2022-11-23T08:24:51;9.83;;;6.70;;
18210;SDS011;9231;48.852;9.882;2022-11-23T08:27:19;9.63;;;6.20;;
18210;SDS011;9231;48.852;9.882;2022-11-23T08:29:45;8.37;;;7.10;;
18210;SDS011;9231;48.852;9.882;2022-11-23T08:32:12;10.13;;;6.97;;
18210;SDS011;9231;48.852;9.882;2022-11-23T08:34:38;8.97;;;6.70;;
18210;SDS011;9231;48.852;9.882;2022-11-23T08:37:07;8.37;;;6.70;;
18210;SDS011;9231;48.852;9.882;2022-11-23T08:39:33;12.70;;;8.03;;
18210;SDS011;9231;48.852;9.882;2022-11-23T08:41:59;14.27;;;10.37;;
18210;SDS011;9231;48.852;9.882;2022-11-23T08:44:27;16.17;;;11.23;;
18210;SDS011;9231;48.852;9.882;2022-11-23T08:46:54;15.43;;;10.27;;
18210;SDS011;9231;48.852;9.882;2022-11-23T08:49:20;18.67;;;11.37;;
18210;SDS011;9231;48.852;9.882;2022-11-23T08:51:47;16.30;;;10.53;;
18210;SDS011;9231;48.852;9.882;2022-11-23T08:54:13;17.30;;;10.53;;
18210;SDS011;9231;48.852;9.882;2022-11-23T08:56:42;17.17;;;11.17;;
18210;SDS011;9231;48.852;9.882;2022-11-23T08:59:09;20.07;;;12.63;;
18210;SDS011;9231;48.852;9.882;2022-11-23T09:01:38;16.90;;;11.13;;
18210;SDS011;9231;48.852;9.882;2022-11-23T09:04:04;17.97;;;11.50;;
18210;SDS011;9231;48.852;9.882;2022-11-23T09:06:31;29.00;;;16.60;;
18210;SDS011;9231;48.852;9.882;2022-11-23T09:08:58;22.93;;;13.90;;
18210;SDS011;9231;48.852;9.882;2022-11-23T09:11:25;25.90;;;17.30;;
18210;SDS011;9231;48.852;9.882;2022-11-23T09:13:51;23.23;;;13.40;;
18210;SDS011;9231;48.852;9.882;2022-11-23T09:16:18;18.57;;;11.87;;
18210;SDS011;9231;48.852;9.882;2022-11-23T09:18:46;10.03;;;7.73;;
18210;SDS011;9231;48.852;9.882;2022-11-23T09:21:13;11.53;;;8.17;;
18210;SDS011;9231;48.852;9.882;2022-11-23T09:23:40;14.20;;;8.47;;
18210;SDS011;9231;48.852;9.882;2022-11-23T09:26:06;18.33;;;12.70;;
18210;SDS011;9231;48.852;9.882;2022-11-23T09:28:34;20.33;;;17.77;;
18210;SDS011;9231;48.852;9.882;2022-11-23T09:31:01;8.43;;;6.67;;
18210;SDS011;9231;48.852;9.882;2022-11-23T09:33:28;9.13;;;8.07;;
18210;SDS011;9231;48.852;9.882;2022-11-23T09:35:56;10.30;;;8.00;;
18210;SDS011;9231;48.852;9.882;2022-11-23T09:38:23;43.70;;;31.10;;
18210;SDS011;9231;48.852;9.882;2022-11-23T09:40:50;43.00;;;28.63;;
18210;SDS011;9231;48.852;9.882;2022-11-23T09:43:29;25.37;;;17.53;;
18210;SDS011;9231;48.852;9.882;2022-11-23T09:45:59;45.13;;;35.80;;
18210;SDS011;9231;48.852;9.882;2022-11-23T09:48:31;46.83;;;30.60;;
18210;SDS011;9231;48.852;9.882;2022-11-23T09:51:05;52.33;;;26.73;;
18210;SDS011;9231;48.852;9.882;2022-11-23T09:53:36;31.07;;;16.33;;
18210;SDS011;9231;48.852;9.882;2022-11-23T09:56:07;14.87;;;6.03;;
18210;SDS011;9231;48.852;9.882;2022-11-23T09:58:43;8.77;;;4.67;;
18210;SDS011;9231;48.852;9.882;2022-11-23T10:01:11;5.83;;;4.03;;
18210;SDS011;9231;48.852;9.882;2022-11-23T10:03:38;9.47;;;5.10;;
18210;SDS011;9231;48.852;9.882;2022-11-23T10:06:14;13.80;;;6.90;;
18210;SDS011;9231;48.852;9.882;2022-11-23T10:08:43;6.87;;;3.97;;
18210;SDS011;9231;48.852;9.882;2022-11-23T10:11:30;15.93;;;10.40;;
18210;SDS011;9231;48.852;9.882;2022-11-23T10:14:03;9.20;;;7.47;;
18210;SDS011;9231;48.852;9.882;2022-11-23T10:16:36;4.60;;;2.30;;
18210;SDS011;9231;48.852;9.882;2022-11-23T10:19:04;4.07;;;1.90;;
18210;SDS011;9231;48.852;9.882;2022-11-23T10:21:38;4.83;;;1.90;;
18210;SDS011;9231;48.852;9.882;2022-11-23T10:24:10;6.63;;;1.60;;
18210;SDS011;9231;48.852;9.882;2022-11-23T10:26:40;6.80;;;1.87;;
18210;SDS011;9231;48.852;9.882;2022-11-23T10:29:09;2.40;;;1.30;;
18210;SDS011;9231;48.852;9.882;2022-11-23T10:31:36;2.90;;;1.53;;
18210;SDS011;9231;48.852;9.882;2022-11-23T10:34:03;4.97;;;1.80;;
18210;SDS011;9231;48.852;9.882;2022-11-23T10:36:38;5.00;;;1.70;;
18210;SDS011;9231;48.852;9.882;2022-11-23T10:39:09;4.70;;;1.93;;
18210;SDS011;9231;48.852;9.882;2022-11-23T10:41:39;4.43;;;1.47;;
18210;SDS011;9231;48.852;9.882;2022-11-23T10:44:06;4.37;;;1.33;;
18210;SDS011;9231;48.852;9.882;2022-11-23T10:46:38;5.93;;;2.10;;
18210;SDS011;9231;48.852;9.882;2022-11-23T10:49:17;3.50;;;1.50;;
18210;SDS011;9231;48.852;9.882;2022-11-23T10:51:49;6.13;;;1.97;;
18210;SDS011;9231;48.852;9.882;2022-11-23T10:54:17;4.20;;;1.60;;
18210;SDS011;9231;48.852;9.882;2022-11-23T10:56:45;4.33;;;1.10;;
18210;SDS011;9231;48.852;9.882;2022-11-23T10:59:13;4.23;;;1.40;;
18210;SDS011;9231;48.852;9.882;2022-11-23T11:01:57;2.83;;;1.20;;
18210;SDS011;9231;48.852;9.882;2022-11-23T11:04:24;3.80;;;1.17;;
18210;SDS011;9231;48.852;9.882;2022-11-23T11:06:52;4.37;;;1.00;;
18210;SDS011;9231;48.852;9.882;2022-11-23T11:09:34;4.13;;;1.30;;
18210;SDS011;9231;48.852;9.882;2022-11-23T11:12:01;3.83;;;1.20;;
18210;SDS011;9231;48.852;9.882;2022-11-23T11:14:28;1.60;;;0.70;;
18210;SDS011;9231;48.852;9.882;2022-11-23T11:16:54;4.07;;;1.97;;
18210;SDS011;9231;48.852;9.882;2022-11-23T11:19:25;4.47;;;1.93;;
18210;SDS011;9231;48.852;9.882;2022-11-23T11:21:53;5.60;;;1.60;;
18210;SDS011;9231;48.852;9.882;2022-11-23T11:24:27;1.93;;;1.20;;
18210;SDS011;9231;48.852;9.882;2022-11-23T11:26:57;6.47;;;1.70;;
18210;SDS011;9231;48.852;9.882;2022-11-23T11:29:28;4.10;;;2.43;;
18210;SDS011;9231;48.852;9.882;2022-11-23T11:31:57;2.93;;;1.10;;
18210;SDS011;9231;48.852;9.882;2022-11-23T11:34:26;2.03;;;0.97;;
18210;SDS011;9231;48.852;9.882;2022-11-23T11:36:57;1.43;;;0.60;;
18210;SDS011;9231;48.852;9.882;2022-11-23T11:39:27;3.77;;;1.03;;
18210;SDS011;9231;48.852;9.882;2022-11-23T11:41:55;3.33;;;0.70;;
18210;SDS011;9231;48.852;9.882;2022-11-23T11:44:23;2.83;;;0.97;;
18210;SDS011;9231;48.852;9.882;2022-11-23T11:46:53;1.77;;;0.83;;
18210;SDS011;9231;48.852;9.882;2022-11-23T11:49:22;1.03;;;0.50;;
18210;SDS011;9231;48.852;9.882;2022-11-23T11:51:51;2.67;;;0.70;;
18210;SDS011;9231;48.852;9.882;2022-11-23T11:54:21;3.03;;;0.60;;
18210;SDS011;9231;48.852;9.882;2022-11-23T11:56:50;3.40;;;0.90;;
18210;SDS011;9231;48.852;9.882;2022-11-23T11:59:19;2.83;;;0.70;;
18210;SDS011;9231;48.852;9.882;2022-11-23T12:01:50;1.63;;;0.43;;
18210;SDS011;9231;48.852;9.882;2022-11-23T12:04:20;2.37;;;0.83;;
18210;SDS011;9231;48.852;9.882;2022-11-23T12:06:50;1.90;;;0.50;;
18210;SDS011;9231;48.852;9.882;2022-11-23T12:09:23;1.67;;;0.50;;
18210;SDS011;9231;48.852;9.882;2022-11-23T12:11:51;1.63;;;0.63;;
18210;SDS011;9231;48.852;9.882;2022-11-23T12:14:17;2.40;;;0.70;;
18210;SDS011;9231;48.852;9.882;2022-11-23T12:16:46;2.17;;;0.70;;
18210;SDS011;9231;48.852;9.882;2022-11-23T12:19:16;3.43;;;0.87;;
18210;SDS011;9231;48.852;9.882;2022-11-23T12:21:57;2.33;;;0.57;;
18210;SDS011;9231;48.852;9.882;2022-11-23T12:24:30;1.77;;;0.60;;
18210;SDS011;9231;48.852;9.882;2022-11-23T12:27:01;1.53;;;0.40;;
18210;SDS011;9231;48.852;9.882;2022-11-23T12:29:40;1.43;;;0.87;;
18210;SDS011;9231;48.852;9.882;2022-11-23T12:32:12;2.13;;;0.67;;
18210;SDS011;9231;48.852;9.882;2022-11-23T12:34:45;1.50;;;0.60;;
18210;SDS011;9231;48.852;9.882;2022-11-23T12:37:21;1.20;;;0.60;;
18210;SDS011;9231;48.852;9.882;2022-11-23T12:39:58;0.93;;;0.50;;
18210;SDS011;9231;48.852;9.882;2022-11-23T12:42:30;2.17;;;0.63;;
18210;SDS011;9231;48.852;9.882;2022-11-23T12:45:10;2.83;;;0.70;;
18210;SDS011;9231;48.852;9.882;2022-11-23T12:47:44;2.40;;;0.73;;
18210;SDS011;9231;48.852;9.882;2022-11-23T12:50:14;0.93;;;0.60;;
18210;SDS011;9231;48.852;9.882;2022-11-23T12:52:50;1.33;;;0.50;;
18210;SDS011;9231;48.852;9.882;2022-11-23T12:55:22;1.77;;;0.70;;
18210;SDS011;9231;48.852;9.882;2022-11-23T12:57:51;2.83;;;0.80;;
18210;SDS011;9231;48.852;9.882;2022-11-23T13:00:20;50.50;;;32.37;;
18210;SDS011;9231;48.852;9.882;2022-11-23T13:03:11;1.80;;;0.80;;
18210;SDS011;9231;48.852;9.882;2022-11-23T13:08:47;7.83;;;5.03;;
18210;SDS011;9231;48.852;9.882;2022-11-23T13:11:20;10.07;;;7.40;;
18210;SDS011;9231;48.852;9.882;2022-11-23T13:13:57;2.77;;;1.27;;
18210;SDS011;9231;48.852;9.882;2022-11-23T13:16:33;1.90;;;0.80;;
18210;SDS011;9231;48.852;9.882;2022-11-23T13:19:13;1.90;;;0.90;;
18210;SDS011;9231;48.852;9.882;2022-11-23T13:21:42;2.10;;;1.13;;
18210;SDS011;9231;48.852;9.882;2022-11-23T13:24:28;2.23;;;0.60;;
18210;SDS011;9231;48.852;9.882;2022-11-23T13:29:51;2.27;;;0.97;;
18210;SDS011;9231;48.852;9.882;2022-11-23T13:40:30;2.00;;;0.80;;
18210;SDS011;9231;48.852;9.882;2022-11-23T13:42:57;1.87;;;0.70;;
18210;SDS011;9231;48.852;9.882;2022-11-23T13:45:27;3.20;;;0.50;;
18210;SDS011;9231;48.852;9.882;2022-11-23T13:48:04;1.57;;;0.67;;
18210;SDS011;9231;48.852;9.882;2022-11-23T13:50:31;2.60;;;0.87;;
18210;SDS011;9231;48.852;9.882;2022-11-23T13:52:58;2.60;;;0.93;;
18210;SDS011;9231;48.852;9.882;2022-11-23T13:55:27;2.10;;;0.80;;
18210;SDS011;9231;48.852;9.882;2022-11-23T14:00:44;2.30;;;0.70;;
18210;SDS011;9231;48.852;9.882;2022-11-23T14:05:57;3.20;;;0.93;;
18210;SDS011;9231;48.852;9.882;2022-11-23T14:08:25;1.47;;;0.80;;
18210;SDS011;9231;48.852;9.882;2022-11-23T14:10:52;1.87;;;0.70;;
18210;SDS011;9231;48.852;9.882;2022-11-23T14:13:19;1.77;;;0.60;;
18210;SDS011;9231;48.852;9.882;2022-11-23T14:15:53;1.63;;;0.70;;
18210;SDS011;9231;48.852;9.882;2022-11-23T14:18:39;2.93;;;0.70;;
18210;SDS011;9231;48.852;9.882;2022-11-23T14:21:11;2.47;;;0.70;;
18210;SDS011;9231;48.852;9.882;2022-11-23T14:26:32;1.87;;;1.00;;
18210;SDS011;9231;48.852;9.882;2022-11-23T14:31:48;1.80;;;0.73;;
18210;SDS011;9231;48.852;9.882;2022-11-23T14:34:19;2.60;;;0.93;;
18210;SDS011;9231;48.852;9.882;2022-11-23T14:36:51;3.07;;;0.60;;
18210;SDS011;9231;48.852;9.882;2022-11-23T14:42:07;3.17;;;0.83;;
18210;SDS011;9231;48.852;9.882;2022-11-23T14:44:38;2.17;;;1.10;;
18210;SDS011;9231;48.852;9.882;2022-11-23T14:47:08;1.53;;;0.63;;
18210;SDS011;9231;48.852;9.882;2022-11-23T14:49:35;1.07;;;0.70;;
18210;SDS011;9231;48.852;9.882;2022-11-23T14:52:02;4.53;;;0.80;;
18210;SDS011;9231;48.852;9.882;2022-11-23T14:54:29;4.20;;;1.00;;
18210;SDS011;9231;48.852;9.882;2022-11-23T14:56:56;2.60;;;0.73;;
18210;SDS011;9231;48.852;9.882;2022-11-23T14:59:25;3.23;;;0.80;;
18210;SDS011;9231;48.852;9.882;2022-11-23T15:01:53;3.70;;;0.77;;
18210;SDS011;9231;48.852;9.882;2022-11-23T15:04:23;1.53;;;0.80;;
18210;SDS011;9231;48.852;9.882;2022-11-23T15:06:51;2.30;;;0.70;;
18210;SDS011;9231;48.852;9.882;2022-11-23T15:09:22;2.47;;;0.93;;
18210;SDS011;9231;48.852;9.882;2022-11-23T15:12:03;1.90;;;0.80;;
18210;SDS011;9231;48.852;9.882;2022-11-23T15:14:30;4.07;;;1.77;;
18210;SDS011;9231;48.852;9.882;2022-11-23T15:17:08;4.13;;;1.17;;
18210;SDS011;9231;48.852;9.882;2022-11-23T15:19:39;3.07;;;1.07;;
18210;SDS011;9231;48.852;9.882;2022-11-23T15:22:11;3.50;;;1.67;;
18210;SDS011;9231;48.852;9.882;2022-11-23T15:24:38;3.87;;;1.10;;
18210;SDS011;9231;48.852;9.882;2022-11-23T15:27:05;1.67;;;0.77;;
18210;SDS011;9231;48.852;9.882;2022-11-23T15:29:32;2.67;;;0.83;;
18210;SDS011;9231;48.852;9.882;2022-11-23T15:31:59;4.17;;;1.03;;
18210;SDS011;9231;48.852;9.882;2022-11-23T15:34:26;4.53;;;1.13;;
18210;SDS011;9231;48.852;9.882;2022-11-23T15:36:54;2.43;;;1.37;;